sensor_id;sensor_type;location;lat;lon;timestamp;temperature;humidity
39019;DHT22;24786;51.984;5.872;2023-06-22T00:02:16;19.90;99.90
39019;DHT22;24786;51.984;5.872;2023-06-22T00:04:53;19.80;99.90
39019;DHT22;24786;51.984;5.872;2023-06-22T00:07:30;19.80;99.90
39019;DHT22;24786;51.984;5.872;2023-06-22T00:09:56;19.80;99.90
39019;DHT22;24786;51.984;5.872;2023-06-22T00:12:21;19.70;99.90
39019;DHT22;24786;51.984;5.872;2023-06-22T00:15:05;19.70;99.90
39019;DHT22;24786;51.984;5.872;2023-06-22T00:17:49;19.70;99.90
39019;DHT22;24786;51.984;5.872;2023-06-22T00:20:14;19.70;99.90
39019;DHT22;24786;51.984;5.872;2023-06-22T00:22:40;19.70;99.90
39019;DHT22;24786;51.984;5.872;2023-06-22T00:25:09;19.70;99.90
39019;DHT22;24786;51.984;5.872;2023-06-22T00:27:50;19.70;99.90
39019;DHT22;24786;51.984;5.872;2023-06-22T00:30:18;19.60;99.90
39019;DHT22;24786;51.984;5.872;2023-06-22T00:32:44;19.60;99.90
39019;DHT22;24786;51.984;5.872;2023-06-22T00:35:19;19.60;99.90
39019;DHT22;24786;51.984;5.872;2023-06-22T00:37:44;19.60;99.90
39019;DHT22;24786;51.984;5.872;2023-06-22T00:43:01;19.50;99.90
39019;DHT22;24786;51.984;5.872;2023-06-22T00:45:26;19.50;99.90
39019;DHT22;24786;51.984;5.872;2023-06-22T00:47:52;19.50;99.90
39019;DHT22;24786;51.984;5.872;2023-06-22T00:50:19;19.40;99.90
39019;DHT22;24786;51.984;5.872;2023-06-22T00:52:47;19.40;99.90
39019;DHT22;24786;51.984;5.872;2023-06-22T00:55:13;19.40;99.90
39019;DHT22;24786;51.984;5.872;2023-06-22T00:57:39;19.40;99.90
39019;DHT22;24786;51.984;5.872;2023-06-22T01:00:05;19.40;99.90
39019;DHT22;24786;51.984;5.872;2023-06-22T01:02:34;19.30;99.90
39019;DHT22;24786;51.984;5.872;2023-06-22T01:05:02;19.20;99.90
39019;DHT22;24786;51.984;5.872;2023-06-22T01:07:30;19.20;99.90
39019;DHT22;24786;51.984;5.872;2023-06-22T01:12:30;19.20;99.90
39019;DHT22;24786;51.984;5.872;2023-06-22T01:14:59;19.20;99.90
39019;DHT22;24786;51.984;5.872;2023-06-22T01:17:27;19.10;99.90
39019;DHT22;24786;51.984;5.872;2023-06-22T01:19:56;19.00;99.90
39019;DHT22;24786;51.984;5.872;2023-06-22T01:22:24;19.00;99.90
39019;DHT22;24786;51.984;5.872;2023-06-22T01:30:28;19.00;99.90
39019;DHT22;24786;51.984;5.872;2023-06-22T01:32:56;19.00;99.90
39019;DHT22;24786;51.984;5.872;2023-06-22T01:35:22;18.90;99.90
39019;DHT22;24786;51.984;5.872;2023-06-22T01:37:47;18.90;99.90
39019;DHT22;24786;51.984;5.872;2023-06-22T01:40:13;18.90;99.90
39019;DHT22;24786;51.984;5.872;2023-06-22T01:42:40;18.90;99.90
39019;DHT22;24786;51.984;5.872;2023-06-22T01:45:07;18.90;99.90
39019;DHT22;24786;51.984;5.872;2023-06-22T01:47:32;18.90;99.90
39019;DHT22;24786;51.984;5.872;2023-06-22T01:49:58;18.80;99.90
39019;DHT22;24786;51.984;5.872;2023-06-22T01:52:24;18.80;99.90
39019;DHT22;24786;51.984;5.872;2023-06-22T01:54:50;18.80;99.90
39019;DHT22;24786;51.984;5.872;2023-06-22T01:57:15;18.80;99.90
39019;DHT22;24786;51.984;5.872;2023-06-22T02:00:00;18.80;99.90
39019;DHT22;24786;51.984;5.872;2023-06-22T02:02:27;18.80;99.90
39019;DHT22;24786;51.984;5.872;2023-06-22T02:05:03;18.80;99.90
39019;DHT22;24786;51.984;5.872;2023-06-22T02:10:16;18.80;99.90
39019;DHT22;24786;51.984;5.872;2023-06-22T02:12:43;18.80;99.90
39019;DHT22;24786;51.984;5.872;2023-06-22T02:15:09;18.80;99.90
39019;DHT22;24786;51.984;5.872;2023-06-22T02:17:35;18.80;99.90
39019;DHT22;24786;51.984;5.872;2023-06-22T02:20:04;18.80;99.90
39019;DHT22;24786;51.984;5.872;2023-06-22T02:22:33;18.80;99.90
39019;DHT22;24786;51.984;5.872;2023-06-22T02:24:59;18.80;99.90
39019;DHT22;24786;51.984;5.872;2023-06-22T02:27:25;18.80;99.90
39019;DHT22;24786;51.984;5.872;2023-06-22T02:29:50;18.70;99.90
39019;DHT22;24786;51.984;5.872;2023-06-22T02:32:16;18.70;99.90
39019;DHT22;24786;51.984;5.872;2023-06-22T02:34:43;18.70;99.90
39019;DHT22;24786;51.984;5.872;2023-06-22T02:37:13;18.70;99.90
39019;DHT22;24786;51.984;5.872;2023-06-22T02:39:40;18.60;99.90
39019;DHT22;24786;51.984;5.872;2023-06-22T02:42:06;18.60;99.90
39019;DHT22;24786;51.984;5.872;2023-06-22T02:44:31;18.60;99.90
39019;DHT22;24786;51.984;5.872;2023-06-22T02:46:57;18.60;99.90
39019;DHT22;24786;51.984;5.872;2023-06-22T02:49:23;18.50;99.90
39019;DHT22;24786;51.984;5.872;2023-06-22T02:51:48;18.50;99.90
39019;DHT22;24786;51.984;5.872;2023-06-22T02:54:14;18.50;99.90
39019;DHT22;24786;51.984;5.872;2023-06-22T02:56:39;18.50;99.90
39019;DHT22;24786;51.984;5.872;2023-06-22T02:59:06;18.50;99.90
39019;DHT22;24786;51.984;5.872;2023-06-22T03:01:31;18.40;99.90
39019;DHT22;24786;51.984;5.872;2023-06-22T03:04:05;18.50;99.90
39019;DHT22;24786;51.984;5.872;2023-06-22T03:06:30;18.40;99.90
39019;DHT22;24786;51.984;5.872;2023-06-22T03:09:00;18.40;99.90
39019;DHT22;24786;51.984;5.872;2023-06-22T03:11:26;18.40;99.90
39019;DHT22;24786;51.984;5.872;2023-06-22T03:13:51;18.40;99.90
39019;DHT22;24786;51.984;5.872;2023-06-22T03:16:18;18.40;99.90
39019;DHT22;24786;51.984;5.872;2023-06-22T03:18:44;18.50;99.90
39019;DHT22;24786;51.984;5.872;2023-06-22T03:21:09;18.50;99.90
39019;DHT22;24786;51.984;5.872;2023-06-22T03:23:35;18.50;99.90
39019;DHT22;24786;51.984;5.872;2023-06-22T03:26:01;18.50;99.90
39019;DHT22;24786;51.984;5.872;2023-06-22T03:28:26;18.50;99.90
39019;DHT22;24786;51.984;5.872;2023-06-22T03:30:52;18.50;99.90
39019;DHT22;24786;51.984;5.872;2023-06-22T03:33:17;18.40;99.90
39019;DHT22;24786;51.984;5.872;2023-06-22T03:35:43;18.40;99.90
39019;DHT22;24786;51.984;5.872;2023-06-22T03:38:08;18.50;99.90
39019;DHT22;24786;51.984;5.872;2023-06-22T03:40:34;18.50;99.90
39019;DHT22;24786;51.984;5.872;2023-06-22T03:42:59;18.50;99.90
39019;DHT22;24786;51.984;5.872;2023-06-22T03:45:25;18.40;99.90
39019;DHT22;24786;51.984;5.872;2023-06-22T03:47:50;18.50;99.90
39019;DHT22;24786;51.984;5.872;2023-06-22T03:50:16;18.40;99.90
39019;DHT22;24786;51.984;5.872;2023-06-22T03:52:41;18.50;99.90
39019;DHT22;24786;51.984;5.872;2023-06-22T03:55:07;18.50;99.90
39019;DHT22;24786;51.984;5.872;2023-06-22T03:57:33;18.50;99.90
39019;DHT22;24786;51.984;5.872;2023-06-22T03:59:58;18.50;99.90
39019;DHT22;24786;51.984;5.872;2023-06-22T04:02:24;18.40;99.90
39019;DHT22;24786;51.984;5.872;2023-06-22T04:04:50;18.50;99.90
39019;DHT22;24786;51.984;5.872;2023-06-22T04:07:15;18.50;99.90
39019;DHT22;24786;51.984;5.872;2023-06-22T04:09:41;18.40;99.90
39019;DHT22;24786;51.984;5.872;2023-06-22T04:12:07;18.50;99.90
39019;DHT22;24786;51.984;5.872;2023-06-22T04:14:32;18.40;99.90
39019;DHT22;24786;51.984;5.872;2023-06-22T04:16:58;18.50;99.90
39019;DHT22;24786;51.984;5.872;2023-06-22T04:19:24;18.50;99.90
39019;DHT22;24786;51.984;5.872;2023-06-22T04:21:49;18.50;99.90
39019;DHT22;24786;51.984;5.872;2023-06-22T04:24:15;18.50;99.90
39019;DHT22;24786;51.984;5.872;2023-06-22T04:26:40;18.50;99.90
39019;DHT22;24786;51.984;5.872;2023-06-22T04:29:07;18.50;99.90
39019;DHT22;24786;51.984;5.872;2023-06-22T04:31:37;18.50;99.90
39019;DHT22;24786;51.984;5.872;2023-06-22T04:34:03;18.50;99.90
39019;DHT22;24786;51.984;5.872;2023-06-22T04:36:33;18.50;99.90
39019;DHT22;24786;51.984;5.872;2023-06-22T04:39:20;18.50;99.90
39019;DHT22;24786;51.984;5.872;2023-06-22T04:41:46;18.60;99.90
39019;DHT22;24786;51.984;5.872;2023-06-22T04:44:12;18.60;99.90
39019;DHT22;24786;51.984;5.872;2023-06-22T04:46:39;18.60;99.90
39019;DHT22;24786;51.984;5.872;2023-06-22T04:49:07;18.70;99.90
39019;DHT22;24786;51.984;5.872;2023-06-22T04:51:36;18.70;99.90
39019;DHT22;24786;51.984;5.872;2023-06-22T04:54:03;18.70;99.90
39019;DHT22;24786;51.984;5.872;2023-06-22T04:56:31;18.80;99.90
39019;DHT22;24786;51.984;5.872;2023-06-22T04:58:56;18.80;99.90
39019;DHT22;24786;51.984;5.872;2023-06-22T05:01:22;18.80;99.90
39019;DHT22;24786;51.984;5.872;2023-06-22T05:03:48;18.90;99.90
39019;DHT22;24786;51.984;5.872;2023-06-22T05:06:13;18.90;99.90
39019;DHT22;24786;51.984;5.872;2023-06-22T05:08:40;19.00;99.90
39019;DHT22;24786;51.984;5.872;2023-06-22T05:11:05;19.00;99.90
39019;DHT22;24786;51.984;5.872;2023-06-22T05:13:31;19.20;99.90
39019;DHT22;24786;51.984;5.872;2023-06-22T05:15:56;19.30;99.90
39019;DHT22;24786;51.984;5.872;2023-06-22T05:18:27;19.40;99.90
39019;DHT22;24786;51.984;5.872;2023-06-22T05:20:54;19.60;99.90
39019;DHT22;24786;51.984;5.872;2023-06-22T05:25:53;19.80;99.90
39019;DHT22;24786;51.984;5.872;2023-06-22T05:28:20;19.90;99.90
39019;DHT22;24786;51.984;5.872;2023-06-22T05:30:48;20.00;99.90
39019;DHT22;24786;51.984;5.872;2023-06-22T05:33:16;20.10;99.90
39019;DHT22;24786;51.984;5.872;2023-06-22T05:35:42;20.20;99.90
39019;DHT22;24786;51.984;5.872;2023-06-22T05:38:07;20.30;99.90
39019;DHT22;24786;51.984;5.872;2023-06-22T05:40:33;20.40;99.90
39019;DHT22;24786;51.984;5.872;2023-06-22T05:42:58;20.40;99.90
39019;DHT22;24786;51.984;5.872;2023-06-22T05:45:25;20.60;99.90
39019;DHT22;24786;51.984;5.872;2023-06-22T05:47:51;20.70;99.90
39019;DHT22;24786;51.984;5.872;2023-06-22T05:50:16;20.80;99.90
39019;DHT22;24786;51.984;5.872;2023-06-22T05:52:42;20.90;99.90
39019;DHT22;24786;51.984;5.872;2023-06-22T05:55:08;21.00;99.90
39019;DHT22;24786;51.984;5.872;2023-06-22T05:57:33;21.10;99.90
39019;DHT22;24786;51.984;5.872;2023-06-22T06:00:01;21.10;99.90
39019;DHT22;24786;51.984;5.872;2023-06-22T06:02:29;21.30;99.90
39019;DHT22;24786;51.984;5.872;2023-06-22T06:04:59;21.40;99.90
39019;DHT22;24786;51.984;5.872;2023-06-22T06:07:24;21.50;99.90
39019;DHT22;24786;51.984;5.872;2023-06-22T06:09:51;21.70;99.90
39019;DHT22;24786;51.984;5.872;2023-06-22T06:12:19;21.90;99.90
39019;DHT22;24786;51.984;5.872;2023-06-22T06:14:50;22.00;99.90
39019;DHT22;24786;51.984;5.872;2023-06-22T06:17:18;22.10;99.90
39019;DHT22;24786;51.984;5.872;2023-06-22T06:19:44;22.20;99.90
39019;DHT22;24786;51.984;5.872;2023-06-22T06:22:09;22.30;99.90
39019;DHT22;24786;51.984;5.872;2023-06-22T06:24:35;22.40;99.90
39019;DHT22;24786;51.984;5.872;2023-06-22T06:27:00;22.60;99.90
39019;DHT22;24786;51.984;5.872;2023-06-22T06:29:26;22.70;99.90
39019;DHT22;24786;51.984;5.872;2023-06-22T06:31:51;22.80;99.90
39019;DHT22;24786;51.984;5.872;2023-06-22T06:34:16;22.90;99.90
39019;DHT22;24786;51.984;5.872;2023-06-22T06:36:42;23.00;99.90
39019;DHT22;24786;51.984;5.872;2023-06-22T06:39:08;23.10;99.90
39019;DHT22;24786;51.984;5.872;2023-06-22T06:41:34;23.20;99.90
39019;DHT22;24786;51.984;5.872;2023-06-22T06:43:59;23.20;99.90
39019;DHT22;24786;51.984;5.872;2023-06-22T06:46:25;23.20;99.90
39019;DHT22;24786;51.984;5.872;2023-06-22T06:48:51;23.20;99.90
39019;DHT22;24786;51.984;5.872;2023-06-22T06:51:16;23.30;99.90
39019;DHT22;24786;51.984;5.872;2023-06-22T06:53:42;23.40;99.90
39019;DHT22;24786;51.984;5.872;2023-06-22T06:56:07;23.40;99.90
39019;DHT22;24786;51.984;5.872;2023-06-22T06:58:35;23.50;99.90
39019;DHT22;24786;51.984;5.872;2023-06-22T07:01:01;23.50;99.90
39019;DHT22;24786;51.984;5.872;2023-06-22T07:03:28;23.60;99.90
39019;DHT22;24786;51.984;5.872;2023-06-22T07:05:53;23.70;99.90
39019;DHT22;24786;51.984;5.872;2023-06-22T07:08:19;23.80;99.90
39019;DHT22;24786;51.984;5.872;2023-06-22T07:10:44;23.90;99.90
39019;DHT22;24786;51.984;5.872;2023-06-22T07:13:10;23.90;99.90
39019;DHT22;24786;51.984;5.872;2023-06-22T07:15:35;23.80;99.90
39019;DHT22;24786;51.984;5.872;2023-06-22T07:18:01;23.70;99.90
39019;DHT22;24786;51.984;5.872;2023-06-22T07:20:26;23.60;99.90
39019;DHT22;24786;51.984;5.872;2023-06-22T07:22:52;23.50;99.90
39019;DHT22;24786;51.984;5.872;2023-06-22T07:25:18;23.40;99.90
39019;DHT22;24786;51.984;5.872;2023-06-22T07:27:44;23.30;99.90
39019;DHT22;24786;51.984;5.872;2023-06-22T07:30:10;23.40;99.90
39019;DHT22;24786;51.984;5.872;2023-06-22T07:32:36;23.40;99.90
39019;DHT22;24786;51.984;5.872;2023-06-22T07:35:02;23.50;99.90
39019;DHT22;24786;51.984;5.872;2023-06-22T07:37:27;23.50;99.90
39019;DHT22;24786;51.984;5.872;2023-06-22T07:39:53;23.50;99.90
39019;DHT22;24786;51.984;5.872;2023-06-22T07:42:24;23.60;99.90
39019;DHT22;24786;51.984;5.872;2023-06-22T07:44:49;23.60;99.90
39019;DHT22;24786;51.984;5.872;2023-06-22T07:47:16;23.60;99.90
39019;DHT22;24786;51.984;5.872;2023-06-22T07:49:43;23.50;99.90
39019;DHT22;24786;51.984;5.872;2023-06-22T07:52:08;23.50;99.90
39019;DHT22;24786;51.984;5.872;2023-06-22T07:54:34;23.60;99.90
39019;DHT22;24786;51.984;5.872;2023-06-22T07:56:59;23.70;99.90
39019;DHT22;24786;51.984;5.872;2023-06-22T07:59:25;23.80;99.90
39019;DHT22;24786;51.984;5.872;2023-06-22T08:01:50;23.90;99.90
39019;DHT22;24786;51.984;5.872;2023-06-22T08:04:17;24.00;99.90
39019;DHT22;24786;51.984;5.872;2023-06-22T08:06:42;24.00;99.90
39019;DHT22;24786;51.984;5.872;2023-06-22T08:09:09;24.00;99.90
39019;DHT22;24786;51.984;5.872;2023-06-22T08:11:34;24.10;99.90
39019;DHT22;24786;51.984;5.872;2023-06-22T08:14:00;24.00;99.90
39019;DHT22;24786;51.984;5.872;2023-06-22T08:16:25;24.00;99.90
39019;DHT22;24786;51.984;5.872;2023-06-22T08:18:51;24.00;99.90
39019;DHT22;24786;51.984;5.872;2023-06-22T08:21:16;24.00;99.90
39019;DHT22;24786;51.984;5.872;2023-06-22T08:23:42;24.10;99.90
39019;DHT22;24786;51.984;5.872;2023-06-22T08:26:07;24.00;99.90
39019;DHT22;24786;51.984;5.872;2023-06-22T08:28:33;24.10;99.90
39019;DHT22;24786;51.984;5.872;2023-06-22T08:30:59;24.00;99.90
39019;DHT22;24786;51.984;5.872;2023-06-22T08:33:25;24.10;99.90
39019;DHT22;24786;51.984;5.872;2023-06-22T08:35:54;24.10;99.90
39019;DHT22;24786;51.984;5.872;2023-06-22T08:38:20;24.20;99.90
39019;DHT22;24786;51.984;5.872;2023-06-22T08:40:45;24.20;99.90
39019;DHT22;24786;51.984;5.872;2023-06-22T08:43:11;24.40;99.90
39019;DHT22;24786;51.984;5.872;2023-06-22T08:45:36;24.60;99.90
39019;DHT22;24786;51.984;5.872;2023-06-22T08:48:02;24.80;99.90
39019;DHT22;24786;51.984;5.872;2023-06-22T08:50:27;24.90;99.90
39019;DHT22;24786;51.984;5.872;2023-06-22T08:52:53;25.00;99.90
39019;DHT22;24786;51.984;5.872;2023-06-22T08:55:18;24.90;99.90
39019;DHT22;24786;51.984;5.872;2023-06-22T08:57:44;24.90;99.90
39019;DHT22;24786;51.984;5.872;2023-06-22T09:00:10;24.80;99.90
39019;DHT22;24786;51.984;5.872;2023-06-22T09:02:43;24.70;99.90
39019;DHT22;24786;51.984;5.872;2023-06-22T09:05:08;24.70;99.90
39019;DHT22;24786;51.984;5.872;2023-06-22T09:07:34;24.60;99.90
39019;DHT22;24786;51.984;5.872;2023-06-22T09:10:00;24.60;99.90
39019;DHT22;24786;51.984;5.872;2023-06-22T09:12:25;24.60;99.90
39019;DHT22;24786;51.984;5.872;2023-06-22T09:14:52;24.70;99.90
39019;DHT22;24786;51.984;5.872;2023-06-22T09:17:18;24.90;99.90
39019;DHT22;24786;51.984;5.872;2023-06-22T09:19:43;25.10;99.90
39019;DHT22;24786;51.984;5.872;2023-06-22T09:22:09;25.30;99.90
39019;DHT22;24786;51.984;5.872;2023-06-22T09:24:34;25.40;99.90
39019;DHT22;24786;51.984;5.872;2023-06-22T09:27:00;25.50;99.90
39019;DHT22;24786;51.984;5.872;2023-06-22T09:29:25;25.50;99.90
39019;DHT22;24786;51.984;5.872;2023-06-22T09:31:51;25.50;99.90
39019;DHT22;24786;51.984;5.872;2023-06-22T09:34:19;25.50;99.90
39019;DHT22;24786;51.984;5.872;2023-06-22T09:36:45;25.50;99.90
39019;DHT22;24786;51.984;5.872;2023-06-22T09:39:11;25.50;99.90
39019;DHT22;24786;51.984;5.872;2023-06-22T09:41:36;25.50;99.90
39019;DHT22;24786;51.984;5.872;2023-06-22T09:44:02;25.40;99.90
39019;DHT22;24786;51.984;5.872;2023-06-22T09:46:27;25.40;99.90
39019;DHT22;24786;51.984;5.872;2023-06-22T09:48:54;25.30;99.90
39019;DHT22;24786;51.984;5.872;2023-06-22T09:51:19;25.30;99.90
39019;DHT22;24786;51.984;5.872;2023-06-22T09:53:49;25.30;99.90
39019;DHT22;24786;51.984;5.872;2023-06-22T09:56:15;25.20;99.90
39019;DHT22;24786;51.984;5.872;2023-06-22T09:58:44;25.10;99.90
39019;DHT22;24786;51.984;5.872;2023-06-22T10:01:10;25.10;99.90
39019;DHT22;24786;51.984;5.872;2023-06-22T10:03:43;25.00;99.90
39019;DHT22;24786;51.984;5.872;2023-06-22T10:06:08;24.90;99.90
39019;DHT22;24786;51.984;5.872;2023-06-22T10:08:36;24.90;99.90
39019;DHT22;24786;51.984;5.872;2023-06-22T10:11:03;24.80;99.90
39019;DHT22;24786;51.984;5.872;2023-06-22T10:13:28;24.80;99.90
39019;DHT22;24786;51.984;5.872;2023-06-22T10:15:54;24.80;99.90
39019;DHT22;24786;51.984;5.872;2023-06-22T10:18:19;24.70;99.90
39019;DHT22;24786;51.984;5.872;2023-06-22T10:20:47;24.70;99.90
39019;DHT22;24786;51.984;5.872;2023-06-22T10:23:12;24.60;99.90
39019;DHT22;24786;51.984;5.872;2023-06-22T10:25:38;24.50;99.90
39019;DHT22;24786;51.984;5.872;2023-06-22T10:28:03;24.50;99.90
39019;DHT22;24786;51.984;5.872;2023-06-22T10:30:28;24.50;99.90
39019;DHT22;24786;51.984;5.872;2023-06-22T10:32:54;24.50;99.90
39019;DHT22;24786;51.984;5.872;2023-06-22T10:35:20;24.50;99.90
39019;DHT22;24786;51.984;5.872;2023-06-22T10:37:45;24.50;99.90
39019;DHT22;24786;51.984;5.872;2023-06-22T10:40:12;24.50;99.90
39019;DHT22;24786;51.984;5.872;2023-06-22T10:42:38;24.50;99.90
39019;DHT22;24786;51.984;5.872;2023-06-22T10:45:04;24.50;99.90
39019;DHT22;24786;51.984;5.872;2023-06-22T10:47:29;24.60;99.90
39019;DHT22;24786;51.984;5.872;2023-06-22T10:49:55;24.70;99.90
39019;DHT22;24786;51.984;5.872;2023-06-22T10:52:20;24.70;99.90
39019;DHT22;24786;51.984;5.872;2023-06-22T10:54:46;24.70;99.90
39019;DHT22;24786;51.984;5.872;2023-06-22T10:57:11;24.70;99.90
39019;DHT22;24786;51.984;5.872;2023-06-22T10:59:37;24.70;99.90
39019;DHT22;24786;51.984;5.872;2023-06-22T11:02:02;24.70;99.90
39019;DHT22;24786;51.984;5.872;2023-06-22T11:04:28;24.70;99.90
39019;DHT22;24786;51.984;5.872;2023-06-22T11:06:53;24.70;99.90
39019;DHT22;24786;51.984;5.872;2023-06-22T11:09:19;24.70;99.90
39019;DHT22;24786;51.984;5.872;2023-06-22T11:11:49;24.70;99.90
39019;DHT22;24786;51.984;5.872;2023-06-22T11:14:15;24.60;99.90
39019;DHT22;24786;51.984;5.872;2023-06-22T11:16:40;24.60;99.90
39019;DHT22;24786;51.984;5.872;2023-06-22T11:19:06;24.60;99.90
39019;DHT22;24786;51.984;5.872;2023-06-22T11:21:34;24.60;99.90
39019;DHT22;24786;51.984;5.872;2023-06-22T11:23:59;24.60;99.90
39019;DHT22;24786;51.984;5.872;2023-06-22T11:26:27;24.60;99.90
39019;DHT22;24786;51.984;5.872;2023-06-22T11:28:53;24.60;99.90
39019;DHT22;24786;51.984;5.872;2023-06-22T11:31:19;24.50;99.90
39019;DHT22;24786;51.984;5.872;2023-06-22T11:33:44;24.50;99.90
39019;DHT22;24786;51.984;5.872;2023-06-22T11:36:11;24.40;99.90
39019;DHT22;24786;51.984;5.872;2023-06-22T11:38:37;24.30;99.90
39019;DHT22;24786;51.984;5.872;2023-06-22T11:41:07;24.20;99.90
39019;DHT22;24786;51.984;5.872;2023-06-22T11:43:33;24.00;99.90
39019;DHT22;24786;51.984;5.872;2023-06-22T11:45:59;24.00;99.90
39019;DHT22;24786;51.984;5.872;2023-06-22T11:48:24;23.80;99.90
39019;DHT22;24786;51.984;5.872;2023-06-22T11:50:50;23.80;99.90
39019;DHT22;24786;51.984;5.872;2023-06-22T11:53:15;23.60;99.90
39019;DHT22;24786;51.984;5.872;2023-06-22T11:55:45;23.50;99.90
39019;DHT22;24786;51.984;5.872;2023-06-22T11:58:11;23.40;99.90
39019;DHT22;24786;51.984;5.872;2023-06-22T12:00:36;23.30;99.90
39019;DHT22;24786;51.984;5.872;2023-06-22T12:03:02;23.20;99.90
39019;DHT22;24786;51.984;5.872;2023-06-22T12:05:28;23.10;99.90
39019;DHT22;24786;51.984;5.872;2023-06-22T12:07:53;23.00;99.90
39019;DHT22;24786;51.984;5.872;2023-06-22T12:10:20;22.90;99.90
39019;DHT22;24786;51.984;5.872;2023-06-22T12:12:45;22.70;99.90
39019;DHT22;24786;51.984;5.872;2023-06-22T12:15:11;22.60;99.90
39019;DHT22;24786;51.984;5.872;2023-06-22T12:17:36;22.50;99.90
39019;DHT22;24786;51.984;5.872;2023-06-22T12:20:02;22.40;99.90
39019;DHT22;24786;51.984;5.872;2023-06-22T12:22:33;22.40;99.90
39019;DHT22;24786;51.984;5.872;2023-06-22T12:24:59;22.30;99.90
39019;DHT22;24786;51.984;5.872;2023-06-22T12:27:25;22.20;99.90
39019;DHT22;24786;51.984;5.872;2023-06-22T12:29:51;22.10;99.90
39019;DHT22;24786;51.984;5.872;2023-06-22T12:32:16;22.00;99.90
39019;DHT22;24786;51.984;5.872;2023-06-22T12:34:42;22.00;99.90
39019;DHT22;24786;51.984;5.872;2023-06-22T12:37:07;21.90;99.90
39019;DHT22;24786;51.984;5.872;2023-06-22T12:39:33;21.80;99.90
39019;DHT22;24786;51.984;5.872;2023-06-22T12:41:59;21.80;99.90
39019;DHT22;24786;51.984;5.872;2023-06-22T12:44:24;21.70;99.90
39019;DHT22;24786;51.984;5.872;2023-06-22T12:46:50;21.60;99.90
39019;DHT22;24786;51.984;5.872;2023-06-22T12:49:15;21.50;99.90
39019;DHT22;24786;51.984;5.872;2023-06-22T12:51:41;21.50;99.90
39019;DHT22;24786;51.984;5.872;2023-06-22T12:54:10;21.40;99.90
39019;DHT22;24786;51.984;5.872;2023-06-22T12:56:36;21.40;99.90
39019;DHT22;24786;51.984;5.872;2023-06-22T12:59:02;21.30;99.90
39019;DHT22;24786;51.984;5.872;2023-06-22T13:01:30;21.30;99.90
39019;DHT22;24786;51.984;5.872;2023-06-22T13:03:57;21.30;99.90
39019;DHT22;24786;51.984;5.872;2023-06-22T13:06:23;21.40;99.90
39019;DHT22;24786;51.984;5.872;2023-06-22T13:08:48;21.30;99.90
39019;DHT22;24786;51.984;5.872;2023-06-22T13:11:14;21.20;99.90
39019;DHT22;24786;51.984;5.872;2023-06-22T13:13:40;21.30;99.90
39019;DHT22;24786;51.984;5.872;2023-06-22T13:16:05;21.20;99.90
39019;DHT22;24786;51.984;5.872;2023-06-22T13:18:31;21.30;99.90
39019;DHT22;24786;51.984;5.872;2023-06-22T13:20:56;21.20;99.90
39019;DHT22;24786;51.984;5.872;2023-06-22T13:23:23;21.20;99.90
39019;DHT22;24786;51.984;5.872;2023-06-22T13:25:49;21.20;99.90
39019;DHT22;24786;51.984;5.872;2023-06-22T13:28:14;21.20;99.90
39019;DHT22;24786;51.984;5.872;2023-06-22T13:30:41;21.20;99.90
39019;DHT22;24786;51.984;5.872;2023-06-22T13:33:06;21.10;99.90
39019;DHT22;24786;51.984;5.872;2023-06-22T13:35:32;21.10;99.90
39019;DHT22;24786;51.984;5.872;2023-06-22T13:37:57;21.00;99.90
39019;DHT22;24786;51.984;5.872;2023-06-22T13:40:23;21.10;99.90
39019;DHT22;24786;51.984;5.872;2023-06-22T13:42:48;20.90;99.90
39019;DHT22;24786;51.984;5.872;2023-06-22T13:45:14;20.90;99.90
39019;DHT22;24786;51.984;5.872;2023-06-22T13:47:42;20.90;99.90
39019;DHT22;24786;51.984;5.872;2023-06-22T13:50:08;20.80;99.90
39019;DHT22;24786;51.984;5.872;2023-06-22T13:52:33;20.70;99.90
39019;DHT22;24786;51.984;5.872;2023-06-22T13:54:59;20.70;99.90
39019;DHT22;24786;51.984;5.872;2023-06-22T13:57:24;20.60;99.90
39019;DHT22;24786;51.984;5.872;2023-06-22T13:59:50;20.60;99.90
39019;DHT22;24786;51.984;5.872;2023-06-22T14:02:15;20.50;99.90
39019;DHT22;24786;51.984;5.872;2023-06-22T14:04:41;20.50;99.90
39019;DHT22;24786;51.984;5.872;2023-06-22T14:07:06;20.40;99.90
39019;DHT22;24786;51.984;5.872;2023-06-22T14:09:32;20.40;99.90
39019;DHT22;24786;51.984;5.872;2023-06-22T14:11:57;20.40;99.90
39019;DHT22;24786;51.984;5.872;2023-06-22T14:14:23;20.30;99.90
39019;DHT22;24786;51.984;5.872;2023-06-22T14:16:48;20.20;99.90
39019;DHT22;24786;51.984;5.872;2023-06-22T14:19:16;20.30;99.90
39019;DHT22;24786;51.984;5.872;2023-06-22T14:21:42;20.20;99.90
39019;DHT22;24786;51.984;5.872;2023-06-22T14:24:07;20.20;99.90
39019;DHT22;24786;51.984;5.872;2023-06-22T14:26:33;20.20;99.90
39019;DHT22;24786;51.984;5.872;2023-06-22T14:28:58;20.10;99.90
39019;DHT22;24786;51.984;5.872;2023-06-22T14:31:24;20.10;99.90
39019;DHT22;24786;51.984;5.872;2023-06-22T14:33:49;20.10;99.90
39019;DHT22;24786;51.984;5.872;2023-06-22T14:36:15;20.10;99.90
39019;DHT22;24786;51.984;5.872;2023-06-22T14:38:41;20.10;99.90
39019;DHT22;24786;51.984;5.872;2023-06-22T14:41:06;20.10;99.90
39019;DHT22;24786;51.984;5.872;2023-06-22T14:43:32;20.20;99.90
39019;DHT22;24786;51.984;5.872;2023-06-22T14:45:57;20.10;99.90
39019;DHT22;24786;51.984;5.872;2023-06-22T14:48:23;20.10;99.90
39019;DHT22;24786;51.984;5.872;2023-06-22T14:50:48;20.10;99.90
39019;DHT22;24786;51.984;5.872;2023-06-22T14:53:16;20.10;99.90
39019;DHT22;24786;51.984;5.872;2023-06-22T14:55:42;20.10;99.90
39019;DHT22;24786;51.984;5.872;2023-06-22T14:58:07;20.10;99.90
39019;DHT22;24786;51.984;5.872;2023-06-22T15:00:32;20.00;99.90
39019;DHT22;24786;51.984;5.872;2023-06-22T15:02:58;20.00;99.90
39019;DHT22;24786;51.984;5.872;2023-06-22T15:05:25;19.90;99.90
39019;DHT22;24786;51.984;5.872;2023-06-22T15:07:50;19.90;99.90
39019;DHT22;24786;51.984;5.872;2023-06-22T15:10:16;19.80;99.90
39019;DHT22;24786;51.984;5.872;2023-06-22T15:12:41;19.80;99.90
39019;DHT22;24786;51.984;5.872;2023-06-22T15:15:07;19.70;99.90
39019;DHT22;24786;51.984;5.872;2023-06-22T15:17:33;19.70;99.90
39019;DHT22;24786;51.984;5.872;2023-06-22T15:19:58;19.70;99.90
39019;DHT22;24786;51.984;5.872;2023-06-22T15:22:24;19.60;99.90
39019;DHT22;24786;51.984;5.872;2023-06-22T15:24:49;19.60;99.90
39019;DHT22;24786;51.984;5.872;2023-06-22T15:27:18;19.60;99.90
39019;DHT22;24786;51.984;5.872;2023-06-22T15:29:44;19.50;99.90
39019;DHT22;24786;51.984;5.872;2023-06-22T15:32:09;19.60;99.90
39019;DHT22;24786;51.984;5.872;2023-06-22T15:34:35;19.50;99.90
39019;DHT22;24786;51.984;5.872;2023-06-22T15:37:00;19.50;99.90
39019;DHT22;24786;51.984;5.872;2023-06-22T15:39:26;19.50;99.90
39019;DHT22;24786;51.984;5.872;2023-06-22T15:41:52;19.50;99.90